sensor_id;sensor_type;location;lat;lon;timestamp;pressure;altitude;pressure_sealevel;temperature;humidity
13011;BME280;6786;57.632;11.962;2022-07-06T00:00:35;100778.97;;;22.06;59.17
13011;BME280;6786;57.632;11.962;2022-07-06T00:03:03;100778.13;;;22.05;58.81
13011;BME280;6786;57.632;11.962;2022-07-06T00:05:32;100778.97;;;22.06;59.12
13011;BME280;6786;57.632;11.962;2022-07-06T00:08:00;100775.28;;;22.07;58.82
13011;BME280;6786;57.632;11.962;2022-07-06T00:10:28;100773.59;;;22.06;59.14
13011;BME280;6786;57.632;11.962;2022-07-06T00:12:56;100765.53;;;22.06;59.02
13011;BME280;6786;57.632;11.962;2022-07-06T00:15:26;100771.63;;;22.08;58.78
13011;BME280;6786;57.632;11.962;2022-07-06T00:17:54;100765.38;;;22.07;58.82
13011;BME280;6786;57.632;11.962;2022-07-06T00:20:22;100771.63;;;22.08;58.65
13011;BME280;6786;57.632;11.962;2022-07-06T00:22:50;100784.38;;;22.06;58.67
13011;BME280;6786;57.632;11.962;2022-07-06T00:25:18;100778.13;;;22.05;58.84
13011;BME280;6786;57.632;11.962;2022-07-06T00:27:46;100774.47;;;22.06;58.85
13011;BME280;6786;57.632;11.962;2022-07-06T00:30:14;100778.28;;;22.04;58.81
13011;BME280;6786;57.632;11.962;2022-07-06T00:32:43;100776.28;;;22.06;59.04
13011;BME280;6786;57.632;11.962;2022-07-06T00:35:11;100780.00;;;22.05;59.14
13011;BME280;6786;57.632;11.962;2022-07-06T00:37:39;100780.00;;;22.05;59.03
13011;BME280;6786;57.632;11.962;2022-07-06T00:40:08;100779.84;;;22.06;58.69
13011;BME280;6786;57.632;11.962;2022-07-06T00:42:40;100773.59;;;22.06;58.85
13011;BME280;6786;57.632;11.962;2022-07-06T00:45:09;100771.91;;;22.05;59.00
13011;BME280;6786;57.632;11.962;2022-07-06T00:47:37;100777.31;;;22.05;58.89
13011;BME280;6786;57.632;11.962;2022-07-06T00:50:08;100764.50;;;22.07;59.00
13011;BME280;6786;57.632;11.962;2022-07-06T00:52:45;100770.22;;;22.04;59.01
13011;BME280;6786;57.632;11.962;2022-07-06T00:55:15;100765.69;;;22.04;58.76
13011;BME280;6786;57.632;11.962;2022-07-06T00:57:45;100775.28;;;22.07;58.53
13011;BME280;6786;57.632;11.962;2022-07-06T01:00:15;100771.06;;;22.04;58.98
13011;BME280;6786;57.632;11.962;2022-07-06T01:02:44;100769.22;;;22.05;58.71
13011;BME280;6786;57.632;11.962;2022-07-06T01:05:15;100769.59;;;22.10;58.53
13011;BME280;6786;57.632;11.962;2022-07-06T01:07:45;100767.91;;;22.09;58.32
13011;BME280;6786;57.632;11.962;2022-07-06T01:10:16;100761.81;;;22.07;58.60
13011;BME280;6786;57.632;11.962;2022-07-06T01:12:45;100768.22;;;22.06;58.74
13011;BME280;6786;57.632;11.962;2022-07-06T01:15:16;100761.97;;;22.05;58.50
13011;BME280;6786;57.632;11.962;2022-07-06T01:17:44;100754.38;;;22.01;58.76
13011;BME280;6786;57.632;11.962;2022-07-06T01:20:14;100761.66;;;22.08;58.42
13011;BME280;6786;57.632;11.962;2022-07-06T01:22:43;100760.00;;;22.07;58.45
13011;BME280;6786;57.632;11.962;2022-07-06T01:25:12;100771.31;;;22.11;58.22
13011;BME280;6786;57.632;11.962;2022-07-06T01:27:41;100758.81;;;22.10;58.45
13011;BME280;6786;57.632;11.962;2022-07-06T01:30:11;100764.22;;;22.10;58.13
13011;BME280;6786;57.632;11.962;2022-07-06T01:32:39;100765.94;;;22.11;58.46
13011;BME280;6786;57.632;11.962;2022-07-06T01:35:09;100768.63;;;22.11;58.42
13011;BME280;6786;57.632;11.962;2022-07-06T01:37:39;100770.44;;;22.10;58.45
13011;BME280;6786;57.632;11.962;2022-07-06T01:40:09;100765.94;;;22.11;58.12
13011;BME280;6786;57.632;11.962;2022-07-06T01:42:37;100762.53;;;22.09;58.43
13011;BME280;6786;57.632;11.962;2022-07-06T01:45:07;100765.94;;;22.11;58.07
13011;BME280;6786;57.632;11.962;2022-07-06T01:47:35;100760.53;;;22.11;58.46
13011;BME280;6786;57.632;11.962;2022-07-06T01:50:05;100760.53;;;22.11;58.07
13011;BME280;6786;57.632;11.962;2022-07-06T01:52:34;100764.22;;;22.10;58.08
13011;BME280;6786;57.632;11.962;2022-07-06T01:55:04;100773.28;;;22.09;58.04
13011;BME280;6786;57.632;11.962;2022-07-06T01:57:32;100759.13;;;22.07;58.33
13011;BME280;6786;57.632;11.962;2022-07-06T02:00:01;100766.53;;;22.05;58.11
13011;BME280;6786;57.632;11.962;2022-07-06T02:02:30;100766.53;;;22.05;58.17
13011;BME280;6786;57.632;11.962;2022-07-06T02:04:57;100761.47;;;22.02;58.32
13011;BME280;6786;57.632;11.962;2022-07-06T02:07:25;100760.59;;;22.01;58.20
13011;BME280;6786;57.632;11.962;2022-07-06T02:09:53;100756.38;;;21.99;58.13
13011;BME280;6786;57.632;11.962;2022-07-06T02:12:23;100764.00;;;22.03;58.53
13011;BME280;6786;57.632;11.962;2022-07-06T02:14:51;100761.47;;;22.02;58.47
13011;BME280;6786;57.632;11.962;2022-07-06T02:17:18;100763.13;;;22.03;58.19
13011;BME280;6786;57.632;11.962;2022-07-06T02:19:46;100760.59;;;22.01;58.22
13011;BME280;6786;57.632;11.962;2022-07-06T02:22:15;100768.38;;;22.04;58.23
13011;BME280;6786;57.632;11.962;2022-07-06T02:24:43;100764.81;;;22.04;58.02
13011;BME280;6786;57.632;11.962;2022-07-06T02:27:11;100764.81;;;22.04;58.08
13011;BME280;6786;57.632;11.962;2022-07-06T02:29:40;100758.47;;;22.05;58.17
13011;BME280;6786;57.632;11.962;2022-07-06T02:32:08;100763.84;;;22.05;58.29
13011;BME280;6786;57.632;11.962;2022-07-06T02:34:36;100757.75;;;22.03;58.19
13011;BME280;6786;57.632;11.962;2022-07-06T02:37:04;100757.44;;;22.06;58.22
13011;BME280;6786;57.632;11.962;2022-07-06T02:39:32;100755.78;;;22.05;57.87
13011;BME280;6786;57.632;11.962;2022-07-06T02:42:00;100752.06;;;22.06;58.19
13011;BME280;6786;57.632;11.962;2022-07-06T02:44:28;100750.38;;;22.05;57.88
13011;BME280;6786;57.632;11.962;2022-07-06T02:46:57;100755.78;;;22.05;57.86
13011;BME280;6786;57.632;11.962;2022-07-06T02:49:25;100750.38;;;22.05;58.26
13011;BME280;6786;57.632;11.962;2022-07-06T02:51:53;100737.91;;;22.04;58.06
13011;BME280;6786;57.632;11.962;2022-07-06T02:54:21;100742.31;;;22.05;58.13
13011;BME280;6786;57.632;11.962;2022-07-06T02:56:49;100741.31;;;22.06;57.93
13011;BME280;6786;57.632;11.962;2022-07-06T02:59:19;100754.75;;;22.06;57.67
13011;BME280;6786;57.632;11.962;2022-07-06T03:01:48;100752.06;;;22.06;58.17
13011;BME280;6786;57.632;11.962;2022-07-06T03:04:17;100752.06;;;22.06;57.72
13011;BME280;6786;57.632;11.962;2022-07-06T03:06:45;100752.06;;;22.06;57.96
13011;BME280;6786;57.632;11.962;2022-07-06T03:09:13;100753.75;;;22.07;58.07
13011;BME280;6786;57.632;11.962;2022-07-06T03:11:41;100752.94;;;22.06;58.04
13011;BME280;6786;57.632;11.962;2022-07-06T03:14:09;100752.06;;;22.06;57.85
13011;BME280;6786;57.632;11.962;2022-07-06T03:16:37;100749.38;;;22.06;58.05
13011;BME280;6786;57.632;11.962;2022-07-06T03:19:05;100757.44;;;22.06;57.74
13011;BME280;6786;57.632;11.962;2022-07-06T03:21:35;100745.81;;;22.05;58.05
13011;BME280;6786;57.632;11.962;2022-07-06T03:24:08;100747.69;;;22.05;57.71
13011;BME280;6786;57.632;11.962;2022-07-06T03:26:36;100744.00;;;22.06;57.54
13011;BME280;6786;57.632;11.962;2022-07-06T03:29:04;100745.00;;;22.05;57.71
13011;BME280;6786;57.632;11.962;2022-07-06T03:31:32;100747.69;;;22.05;57.79
13011;BME280;6786;57.632;11.962;2022-07-06T03:34:02;100742.47;;;22.03;57.79
13011;BME280;6786;57.632;11.962;2022-07-06T03:36:30;100745.00;;;22.05;57.55
13011;BME280;6786;57.632;11.962;2022-07-06T03:39:06;100739.63;;;22.05;57.88
13011;BME280;6786;57.632;11.962;2022-07-06T03:41:35;100740.44;;;22.05;57.72
13011;BME280;6786;57.632;11.962;2022-07-06T03:44:03;100749.53;;;22.04;57.83
13011;BME280;6786;57.632;11.962;2022-07-06T03:46:31;100746.69;;;22.06;57.89
13011;BME280;6786;57.632;11.962;2022-07-06T03:49:00;100747.53;;;22.06;57.46
13011;BME280;6786;57.632;11.962;2022-07-06T03:51:28;100746.69;;;22.06;57.87
13011;BME280;6786;57.632;11.962;2022-07-06T03:53:56;100743.13;;;22.05;57.87
13011;BME280;6786;57.632;11.962;2022-07-06T03:56:25;100751.22;;;22.05;57.91
13011;BME280;6786;57.632;11.962;2022-07-06T03:58:57;100750.38;;;22.05;57.49
13011;BME280;6786;57.632;11.962;2022-07-06T04:01:26;100761.16;;;22.05;57.51
13011;BME280;6786;57.632;11.962;2022-07-06T04:03:55;100751.22;;;22.05;57.54
13011;BME280;6786;57.632;11.962;2022-07-06T04:06:24;100752.06;;;22.06;57.82
13011;BME280;6786;57.632;11.962;2022-07-06T04:08:52;100755.78;;;22.05;57.73
13011;BME280;6786;57.632;11.962;2022-07-06T04:11:21;100747.69;;;22.05;57.76
13011;BME280;6786;57.632;11.962;2022-07-06T04:13:50;100746.69;;;22.06;57.51
13011;BME280;6786;57.632;11.962;2022-07-06T04:16:18;100755.78;;;22.05;57.64
13011;BME280;6786;57.632;11.962;2022-07-06T04:18:46;100752.06;;;22.06;57.65
13011;BME280;6786;57.632;11.962;2022-07-06T04:21:14;100761.81;;;22.07;57.31
13011;BME280;6786;57.632;11.962;2022-07-06T04:23:42;100757.44;;;22.06;57.79
13011;BME280;6786;57.632;11.962;2022-07-06T04:26:10;100753.75;;;22.07;57.50
13011;BME280;6786;57.632;11.962;2022-07-06T04:28:38;100760.84;;;22.08;57.57
13011;BME280;6786;57.632;11.962;2022-07-06T04:31:08;100755.78;;;22.05;57.59
13011;BME280;6786;57.632;11.962;2022-07-06T04:33:36;100752.69;;;22.00;57.68
13011;BME280;6786;57.632;11.962;2022-07-06T04:36:04;100757.44;;;22.06;57.52
13011;BME280;6786;57.632;11.962;2022-07-06T04:38:32;100761.16;;;22.05;57.62
13011;BME280;6786;57.632;11.962;2022-07-06T04:41:03;100759.13;;;22.07;57.26
13011;BME280;6786;57.632;11.962;2022-07-06T04:43:30;100752.06;;;22.06;57.26
13011;BME280;6786;57.632;11.962;2022-07-06T04:45:58;100761.00;;;22.06;57.34
13011;BME280;6786;57.632;11.962;2022-07-06T04:48:29;100758.81;;;22.10;57.12
13011;BME280;6786;57.632;11.962;2022-07-06T04:50:58;100769.59;;;22.10;57.37
13011;BME280;6786;57.632;11.962;2022-07-06T04:53:26;100766.91;;;22.10;56.98
13011;BME280;6786;57.632;11.962;2022-07-06T04:55:54;100759.69;;;22.10;57.02
13011;BME280;6786;57.632;11.962;2022-07-06T04:58:22;100772.28;;;22.10;57.24
13011;BME280;6786;57.632;11.962;2022-07-06T05:00:51;100769.59;;;22.10;56.92
13011;BME280;6786;57.632;11.962;2022-07-06T05:03:20;100770.44;;;22.10;57.13
13011;BME280;6786;57.632;11.962;2022-07-06T05:05:52;100766.91;;;22.10;56.96
13011;BME280;6786;57.632;11.962;2022-07-06T05:08:21;100699.66;;;21.65;57.15
13011;BME280;6786;57.632;11.962;2022-07-06T05:10:50;100766.22;;;22.08;57.20
13011;BME280;6786;57.632;11.962;2022-07-06T05:13:18;100782.38;;;22.08;57.34
13011;BME280;6786;57.632;11.962;2022-07-06T05:15:46;100783.22;;;22.08;57.22
13011;BME280;6786;57.632;11.962;2022-07-06T05:18:14;100781.38;;;22.09;56.83
13011;BME280;6786;57.632;11.962;2022-07-06T05:20:42;100777.00;;;22.08;57.16
13011;BME280;6786;57.632;11.962;2022-07-06T05:23:13;100782.38;;;22.08;57.21
13011;BME280;6786;57.632;11.962;2022-07-06T05:25:41;100786.75;;;22.09;57.04
13011;BME280;6786;57.632;11.962;2022-07-06T05:28:09;100784.38;;;22.06;56.79
13011;BME280;6786;57.632;11.962;2022-07-06T05:30:37;100782.38;;;22.08;56.72
13011;BME280;6786;57.632;11.962;2022-07-06T05:33:05;100786.06;;;22.07;56.71
13011;BME280;6786;57.632;11.962;2022-07-06T05:35:33;100792.44;;;22.06;56.61
13011;BME280;6786;57.632;11.962;2022-07-06T05:38:19;100796.81;;;22.07;56.73
13011;BME280;6786;57.632;11.962;2022-07-06T05:40:48;100791.44;;;22.07;56.57
13011;BME280;6786;57.632;11.962;2022-07-06T05:43:16;100792.44;;;22.06;56.97
13011;BME280;6786;57.632;11.962;2022-07-06T05:45:44;100790.31;;;22.09;56.71
13011;BME280;6786;57.632;11.962;2022-07-06T05:48:12;100791.13;;;22.10;56.93
13011;BME280;6786;57.632;11.962;2022-07-06T05:50:57;100796.50;;;22.10;56.74
13011;BME280;6786;57.632;11.962;2022-07-06T05:53:27;100790.34;;;22.00;56.52
13011;BME280;6786;57.632;11.962;2022-07-06T05:55:54;100808.28;;;22.09;56.52
13011;BME280;6786;57.632;11.962;2022-07-06T05:58:22;100809.97;;;22.10;56.48
13011;BME280;6786;57.632;11.962;2022-07-06T06:00:52;100806.44;;;22.09;56.54
13011;BME280;6786;57.632;11.962;2022-07-06T06:03:21;100807.28;;;22.10;56.93
13011;BME280;6786;57.632;11.962;2022-07-06T06:05:49;100813.53;;;22.10;56.59
13011;BME280;6786;57.632;11.962;2022-07-06T06:08:17;100811.69;;;22.11;56.74
13011;BME280;6786;57.632;11.962;2022-07-06T06:10:46;100812.66;;;22.10;56.33
13011;BME280;6786;57.632;11.962;2022-07-06T06:13:15;100814.38;;;22.11;56.76
13011;BME280;6786;57.632;11.962;2022-07-06T06:15:43;100814.38;;;22.11;56.57
13011;BME280;6786;57.632;11.962;2022-07-06T06:18:11;100814.38;;;22.11;56.52
13011;BME280;6786;57.632;11.962;2022-07-06T06:20:39;100818.91;;;22.10;56.44
13011;BME280;6786;57.632;11.962;2022-07-06T06:23:07;100824.28;;;22.10;56.56
13011;BME280;6786;57.632;11.962;2022-07-06T06:25:37;100827.13;;;22.09;56.48
13011;BME280;6786;57.632;11.962;2022-07-06T06:28:08;100827.13;;;22.09;56.65
13011;BME280;6786;57.632;11.962;2022-07-06T06:30:37;100828.97;;;22.08;56.26
13011;BME280;6786;57.632;11.962;2022-07-06T06:33:10;100823.59;;;22.08;56.50
13011;BME280;6786;57.632;11.962;2022-07-06T06:35:42;100821.75;;;22.09;56.21
13011;BME280;6786;57.632;11.962;2022-07-06T06:38:10;100832.53;;;22.09;56.49
13011;BME280;6786;57.632;11.962;2022-07-06T06:40:38;100825.44;;;22.08;56.14
13011;BME280;6786;57.632;11.962;2022-07-06T06:43:08;100831.66;;;22.08;56.33
13011;BME280;6786;57.632;11.962;2022-07-06T06:45:36;100822.75;;;22.08;56.50
13011;BME280;6786;57.632;11.962;2022-07-06T06:48:04;100817.53;;;22.06;56.40
13011;BME280;6786;57.632;11.962;2022-07-06T06:50:40;100822.75;;;22.08;56.45
13011;BME280;6786;57.632;11.962;2022-07-06T06:53:07;100820.06;;;22.08;56.34
13011;BME280;6786;57.632;11.962;2022-07-06T06:55:35;100825.44;;;22.08;56.08
13011;BME280;6786;57.632;11.962;2022-07-06T06:58:04;100832.81;;;22.06;56.35
13011;BME280;6786;57.632;11.962;2022-07-06T07:00:33;100836.38;;;22.06;56.23
13011;BME280;6786;57.632;11.962;2022-07-06T07:03:01;100830.84;;;22.08;56.39
13011;BME280;6786;57.632;11.962;2022-07-06T07:05:29;100830.84;;;22.08;56.09
13011;BME280;6786;57.632;11.962;2022-07-06T07:07:57;100827.75;;;22.03;56.04
13011;BME280;6786;57.632;11.962;2022-07-06T07:10:31;100839.88;;;22.07;56.15
13011;BME280;6786;57.632;11.962;2022-07-06T07:13:00;100836.22;;;22.08;55.98
13011;BME280;6786;57.632;11.962;2022-07-06T07:15:28;100847.81;;;22.08;56.22
13011;BME280;6786;57.632;11.962;2022-07-06T07:17:58;100841.59;;;22.08;55.94
13011;BME280;6786;57.632;11.962;2022-07-06T07:20:26;100853.19;;;22.08;56.02
13011;BME280;6786;57.632;11.962;2022-07-06T07:22:56;100859.44;;;22.09;56.20
13011;BME280;6786;57.632;11.962;2022-07-06T07:25:24;100856.03;;;22.07;56.09
13011;BME280;6786;57.632;11.962;2022-07-06T07:27:52;100857.50;;;22.01;56.02
13011;BME280;6786;57.632;11.962;2022-07-06T07:30:21;100863.13;;;22.08;55.83
13011;BME280;6786;57.632;11.962;2022-07-06T07:32:49;100857.75;;;22.08;55.91
13011;BME280;6786;57.632;11.962;2022-07-06T07:35:18;100866.50;;;22.10;56.26
13011;BME280;6786;57.632;11.962;2022-07-06T07:37:46;100866.50;;;22.10;56.10
13011;BME280;6786;57.632;11.962;2022-07-06T07:40:14;100871.88;;;22.10;56.22
13011;BME280;6786;57.632;11.962;2022-07-06T07:42:42;100871.88;;;22.10;55.71
13011;BME280;6786;57.632;11.962;2022-07-06T07:45:11;100871.88;;;22.10;55.99
13011;BME280;6786;57.632;11.962;2022-07-06T07:47:40;100874.56;;;22.10;55.82
13011;BME280;6786;57.632;11.962;2022-07-06T07:50:09;100868.22;;;22.11;56.11
13011;BME280;6786;57.632;11.962;2022-07-06T07:52:46;100866.50;;;22.10;55.53
13011;BME280;6786;57.632;11.962;2022-07-06T07:55:14;100883.50;;;22.10;55.73
13011;BME280;6786;57.632;11.962;2022-07-06T07:58:02;100889.75;;;22.11;55.56
13011;BME280;6786;57.632;11.962;2022-07-06T08:00:31;100888.03;;;22.10;55.62
13011;BME280;6786;57.632;11.962;2022-07-06T08:02:59;100893.41;;;22.10;55.64
13011;BME280;6786;57.632;11.962;2022-07-06T08:05:27;100886.19;;;22.10;55.80
13011;BME280;6786;57.632;11.962;2022-07-06T08:07:56;100895.13;;;22.11;55.86
13011;BME280;6786;57.632;11.962;2022-07-06T08:10:24;100884.38;;;22.11;55.52
13011;BME280;6786;57.632;11.962;2022-07-06T08:12:52;100889.75;;;22.11;55.86
13011;BME280;6786;57.632;11.962;2022-07-06T08:15:20;100888.03;;;22.10;55.49
13011;BME280;6786;57.632;11.962;2022-07-06T08:17:49;100898.81;;;22.10;55.72
13011;BME280;6786;57.632;11.962;2022-07-06T08:20:18;100895.44;;;22.08;55.92
13011;BME280;6786;57.632;11.962;2022-07-06T08:22:46;100895.44;;;22.08;55.95
13011;BME280;6786;57.632;11.962;2022-07-06T08:25:16;100897.13;;;22.09;55.90
13011;BME280;6786;57.632;11.962;2022-07-06T08:27:44;100891.75;;;22.09;55.81
13011;BME280;6786;57.632;11.962;2022-07-06T08:30:12;100891.75;;;22.09;55.91
13011;BME280;6786;57.632;11.962;2022-07-06T08:32:41;100898.81;;;22.10;55.93
13011;BME280;6786;57.632;11.962;2022-07-06T08:35:29;100899.09;;;22.07;55.61
13011;BME280;6786;57.632;11.962;2022-07-06T08:37:58;100897.13;;;22.09;55.71
13011;BME280;6786;57.632;11.962;2022-07-06T08:40:32;100901.50;;;22.10;55.54
13011;BME280;6786;57.632;11.962;2022-07-06T08:43:05;100885.50;;;22.08;55.93
13011;BME280;6786;57.632;11.962;2022-07-06T08:45:34;100904.19;;;22.10;55.92
13011;BME280;6786;57.632;11.962;2022-07-06T08:48:04;100886.06;;;22.12;55.52
13011;BME280;6786;57.632;11.962;2022-07-06T08:50:33;100894.13;;;22.12;55.76
13011;BME280;6786;57.632;11.962;2022-07-06T08:53:03;100886.06;;;22.12;55.82
13011;BME280;6786;57.632;11.962;2022-07-06T08:55:32;100903.06;;;22.12;55.65
13011;BME280;6786;57.632;11.962;2022-07-06T08:58:00;100905.75;;;22.12;55.75
13011;BME280;6786;57.632;11.962;2022-07-06T09:00:29;100912.97;;;22.12;55.47
13011;BME280;6786;57.632;11.962;2022-07-06T09:03:00;100912.97;;;22.12;55.44
13011;BME280;6786;57.632;11.962;2022-07-06T09:05:29;100912.97;;;22.12;55.31
13011;BME280;6786;57.632;11.962;2022-07-06T09:07:57;100898.72;;;22.02;55.54
13011;BME280;6786;57.632;11.962;2022-07-06T09:10:26;100912.97;;;22.12;55.68
13011;BME280;6786;57.632;11.962;2022-07-06T09:13:03;100934.50;;;22.12;55.58
13011;BME280;6786;57.632;11.962;2022-07-06T09:15:32;100925.72;;;22.10;55.48
13011;BME280;6786;57.632;11.962;2022-07-06T09:18:00;100920.03;;;22.13;55.30
13011;BME280;6786;57.632;11.962;2022-07-06T09:20:29;100923.75;;;22.12;55.25
13011;BME280;6786;57.632;11.962;2022-07-06T09:22:58;100926.44;;;22.12;55.33
13011;BME280;6786;57.632;11.962;2022-07-06T09:25:27;100920.03;;;22.13;55.26
13011;BME280;6786;57.632;11.962;2022-07-06T09:27:57;100918.34;;;22.12;55.59
13011;BME280;6786;57.632;11.962;2022-07-06T09:30:27;100929.13;;;22.12;55.34
13011;BME280;6786;57.632;11.962;2022-07-06T09:32:58;100937.06;;;22.13;55.65
13011;BME280;6786;57.632;11.962;2022-07-06T09:35:28;100932.69;;;22.12;55.62
13011;BME280;6786;57.632;11.962;2022-07-06T09:38:00;100927.44;;;22.11;55.49
13011;BME280;6786;57.632;11.962;2022-07-06T09:40:30;100939.91;;;22.12;55.50
13011;BME280;6786;57.632;11.962;2022-07-06T09:43:12;100946.97;;;22.13;55.10
13011;BME280;6786;57.632;11.962;2022-07-06T09:45:44;100939.28;;;22.18;55.20
13011;BME280;6786;57.632;11.962;2022-07-06T09:48:13;100936.91;;;22.15;55.40
13011;BME280;6786;57.632;11.962;2022-07-06T09:50:46;100934.81;;;22.09;55.24
13011;BME280;6786;57.632;11.962;2022-07-06T09:53:15;100932.13;;;22.09;55.75
13011;BME280;6786;57.632;11.962;2022-07-06T09:55:44;100935.09;;;22.06;55.69
13011;BME280;6786;57.632;11.962;2022-07-06T09:58:14;100938.50;;;22.08;55.64
13011;BME280;6786;57.632;11.962;2022-07-06T10:00:44;100938.50;;;22.08;55.51
13011;BME280;6786;57.632;11.962;2022-07-06T10:03:13;100943.03;;;22.07;55.49
13011;BME280;6786;57.632;11.962;2022-07-06T10:05:43;100933.13;;;22.08;55.60
13011;BME280;6786;57.632;11.962;2022-07-06T10:08:13;100940.50;;;22.06;55.83
13011;BME280;6786;57.632;11.962;2022-07-06T10:10:42;100902.63;;;21.90;55.71
13011;BME280;6786;57.632;11.962;2022-07-06T10:13:11;100934.09;;;22.07;55.61
13011;BME280;6786;57.632;11.962;2022-07-06T10:15:40;100929.31;;;22.01;55.71
13011;BME280;6786;57.632;11.962;2022-07-06T10:18:09;100931.41;;;22.07;55.56
13011;BME280;6786;57.632;11.962;2022-07-06T10:20:38;100938.50;;;22.08;55.79
13011;BME280;6786;57.632;11.962;2022-07-06T10:23:08;100950.97;;;22.09;55.44
13011;BME280;6786;57.632;11.962;2022-07-06T10:25:37;100947.25;;;22.10;55.66
13011;BME280;6786;57.632;11.962;2022-07-06T10:28:05;100934.81;;;22.09;55.46
13011;BME280;6786;57.632;11.962;2022-07-06T10:30:42;100950.97;;;22.09;55.55
13011;BME280;6786;57.632;11.962;2022-07-06T10:33:14;100941.06;;;22.09;55.34
13011;BME280;6786;57.632;11.962;2022-07-06T10:35:44;100961.72;;;22.09;55.52
13011;BME280;6786;57.632;11.962;2022-07-06T10:38:12;100950.97;;;22.09;55.55
13011;BME280;6786;57.632;11.962;2022-07-06T10:40:41;100956.34;;;22.09;55.68
13011;BME280;6786;57.632;11.962;2022-07-06T10:43:37;100958.19;;;22.08;55.50
13011;BME280;6786;57.632;11.962;2022-07-06T10:46:06;100950.09;;;22.08;55.55
13011;BME280;6786;57.632;11.962;2022-07-06T10:48:37;100950.97;;;22.09;55.71
13011;BME280;6786;57.632;11.962;2022-07-06T10:51:06;100955.47;;;22.08;55.30
13011;BME280;6786;57.632;11.962;2022-07-06T10:53:36;100935.09;;;22.06;55.37
13011;BME280;6786;57.632;11.962;2022-07-06T10:56:06;100949.28;;;22.08;55.34
13011;BME280;6786;57.632;11.962;2022-07-06T10:58:36;100956.34;;;22.09;55.39
13011;BME280;6786;57.632;11.962;2022-07-06T11:01:06;100950.97;;;22.09;55.66
13011;BME280;6786;57.632;11.962;2022-07-06T11:03:44;100958.19;;;22.08;55.19
13011;BME280;6786;57.632;11.962;2022-07-06T11:06:14;100960.03;;;22.08;55.75
13011;BME280;6786;57.632;11.962;2022-07-06T11:08:54;100947.56;;;22.07;55.36
13011;BME280;6786;57.632;11.962;2022-07-06T11:11:25;100963.56;;;22.08;55.29
13011;BME280;6786;57.632;11.962;2022-07-06T11:13:55;100946.44;;;22.09;55.59
13011;BME280;6786;57.632;11.962;2022-07-06T11:16:25;100950.97;;;22.09;55.58
13011;BME280;6786;57.632;11.962;2022-07-06T11:19:09;100954.66;;;22.08;55.19
13011;BME280;6786;57.632;11.962;2022-07-06T11:21:40;100948.41;;;22.07;55.23
13011;BME280;6786;57.632;11.962;2022-07-06T11:24:11;100953.66;;;22.09;55.43
13011;BME280;6786;57.632;11.962;2022-07-06T11:26:41;100953.50;;;22.10;55.29
13011;BME280;6786;57.632;11.962;2022-07-06T11:29:10;100933.44;;;22.05;55.58
13011;BME280;6786;57.632;11.962;2022-07-06T11:31:40;100925.94;;;21.99;55.29
13011;BME280;6786;57.632;11.962;2022-07-06T11:34:11;100938.22;;;22.11;55.50
13011;BME280;6786;57.632;11.962;2022-07-06T11:36:40;100948.13;;;22.10;55.30
13011;BME280;6786;57.632;11.962;2022-07-06T11:39:12;100917.75;;;21.91;55.27
13011;BME280;6786;57.632;11.962;2022-07-06T11:41:40;100940.19;;;22.09;55.17
13011;BME280;6786;57.632;11.962;2022-07-06T11:44:16;100948.13;;;22.10;55.18
13011;BME280;6786;57.632;11.962;2022-07-06T11:46:44;100941.88;;;22.10;55.21
13011;BME280;6786;57.632;11.962;2022-07-06T11:49:14;100948.97;;;22.11;55.40
13011;BME280;6786;57.632;11.962;2022-07-06T11:51:44;100950.97;;;22.09;55.68
13011;BME280;6786;57.632;11.962;2022-07-06T11:54:14;100949.94;;;22.10;55.32
13011;BME280;6786;57.632;11.962;2022-07-06T11:56:48;100954.38;;;22.11;55.60
13011;BME280;6786;57.632;11.962;2022-07-06T11:59:16;100966.81;;;22.12;55.19
13011;BME280;6786;57.632;11.962;2022-07-06T12:01:47;100961.44;;;22.12;55.57
13011;BME280;6786;57.632;11.962;2022-07-06T12:04:17;100956.03;;;22.12;55.36
13011;BME280;6786;57.632;11.962;2022-07-06T12:06:45;100953.50;;;22.10;55.51
13011;BME280;6786;57.632;11.962;2022-07-06T12:09:13;100960.56;;;22.11;55.25
13011;BME280;6786;57.632;11.962;2022-07-06T12:11:44;100959.75;;;22.11;55.49
13011;BME280;6786;57.632;11.962;2022-07-06T12:14:14;100951.66;;;22.11;55.38
13011;BME280;6786;57.632;11.962;2022-07-06T12:16:44;100958.59;;;22.13;55.57
13011;BME280;6786;57.632;11.962;2022-07-06T12:19:13;100948.69;;;22.14;55.10
13011;BME280;6786;57.632;11.962;2022-07-06T12:21:57;100948.69;;;22.14;55.25
13011;BME280;6786;57.632;11.962;2022-07-06T12:24:26;100945.28;;;22.12;55.09
13011;BME280;6786;57.632;11.962;2022-07-06T12:26:57;100954.88;;;22.14;55.27
13011;BME280;6786;57.632;11.962;2022-07-06T12:29:25;100948.69;;;22.14;55.45
13011;BME280;6786;57.632;11.962;2022-07-06T12:31:54;100951.38;;;22.14;55.10
13011;BME280;6786;57.632;11.962;2022-07-06T12:34:24;100955.91;;;22.13;55.45
13011;BME280;6786;57.632;11.962;2022-07-06T12:36:57;100954.06;;;22.14;55.19
13011;BME280;6786;57.632;11.962;2022-07-06T12:39:40;100937.06;;;22.13;55.08
13011;BME280;6786;57.632;11.962;2022-07-06T12:42:09;100952.34;;;22.13;55.35
13011;BME280;6786;57.632;11.962;2022-07-06T12:44:44;100954.06;;;22.14;55.37
13011;BME280;6786;57.632;11.962;2022-07-06T12:47:17;100954.06;;;22.14;55.49
13011;BME280;6786;57.632;11.962;2022-07-06T12:49:45;100952.34;;;22.13;54.98
13011;BME280;6786;57.632;11.962;2022-07-06T12:52:16;100943.28;;;22.14;55.48
13011;BME280;6786;57.632;11.962;2022-07-06T12:54:46;100938.75;;;22.14;55.09
13011;BME280;6786;57.632;11.962;2022-07-06T12:57:16;100941.56;;;22.13;55.03
13011;BME280;6786;57.632;11.962;2022-07-06T12:59:46;100936.19;;;22.13;54.95
13011;BME280;6786;57.632;11.962;2022-07-06T13:02:19;100938.75;;;22.14;55.11